createdAt,value
2018-12-15T00:00:28.576Z,16.20
2018-12-15T00:02:57.237Z,15.27
2018-12-15T00:05:25.503Z,17.40
2018-12-15T00:07:53.710Z,15.90
2018-12-15T00:10:21.932Z,14.90
2018-12-15T00:12:50.367Z,15.80
2018-12-15T00:15:18.661Z,14.70
2018-12-15T00:17:46.913Z,17.70
2018-12-15T00:20:15.262Z,16.17
2018-12-15T00:22:43.464Z,18.10
2018-12-15T00:25:11.851Z,16.00
2018-12-15T00:27:40.078Z,15.67
2018-12-15T00:30:08.423Z,16.50
2018-12-15T00:32:36.746Z,17.43
2018-12-15T00:35:05.339Z,17.70
2018-12-15T00:37:33.635Z,16.13
2018-12-15T00:40:02.035Z,15.27
2018-12-15T00:42:31.116Z,14.93
2018-12-15T00:44:59.391Z,16.47
2018-12-15T00:47:27.699Z,16.17
2018-12-15T00:49:55.914Z,18.97
2018-12-15T00:52:24.135Z,16.80
2018-12-15T00:54:52.465Z,17.10
2018-12-15T00:57:20.874Z,15.80
2018-12-15T00:59:49.077Z,17.00
2018-12-15T01:02:17.456Z,17.70
2018-12-15T01:04:45.703Z,16.03
2018-12-15T01:07:13.924Z,15.90
2018-12-15T01:09:42.333Z,17.30
2018-12-15T01:12:10.624Z,16.43
2018-12-15T01:14:38.830Z,18.40
2018-12-15T01:17:07.074Z,16.93
2018-12-15T01:19:35.368Z,17.70
2018-12-15T01:22:03.814Z,16.83
2018-12-15T01:24:32.088Z,18.00
2018-12-15T01:27:00.333Z,18.40
2018-12-15T01:29:28.566Z,17.87
2018-12-15T01:31:56.855Z,19.30
2018-12-15T01:34:25.212Z,18.40
2018-12-15T01:36:53.519Z,17.43
2018-12-15T01:39:21.859Z,17.90
2018-12-15T01:41:50.260Z,18.20
2018-12-15T01:44:18.469Z,19.67
2018-12-15T01:46:46.787Z,18.30
2018-12-15T01:49:15.019Z,17.10
2018-12-15T01:51:43.246Z,16.83
2018-12-15T01:54:11.504Z,18.03
2018-12-15T01:56:39.802Z,18.20
2018-12-15T01:59:08.165Z,17.30
2018-12-15T02:01:36.355Z,17.07
2018-12-15T02:04:04.948Z,17.40
2018-12-15T02:06:33.194Z,17.40
2018-12-15T02:09:01.490Z,15.53
2018-12-15T02:11:30.559Z,17.73
2018-12-15T02:13:58.755Z,20.00
2018-12-15T02:16:27.027Z,19.30
2018-12-15T02:18:55.319Z,15.83
2018-12-15T02:21:23.548Z,25.87
2018-12-15T02:23:51.956Z,18.43
2018-12-15T02:26:20.494Z,19.60
2018-12-15T02:28:48.699Z,19.93
2018-12-15T02:31:16.941Z,17.73
2018-12-15T02:33:45.147Z,18.90
2018-12-15T02:36:13.384Z,19.50
2018-12-15T02:38:41.800Z,19.30
2018-12-15T02:41:10.066Z,18.17
2018-12-15T02:43:38.682Z,18.40
2018-12-15T02:46:06.986Z,19.50
2018-12-15T02:48:35.490Z,22.20
2018-12-15T02:51:04.124Z,17.63
2018-12-15T02:53:32.309Z,17.77
2018-12-15T02:56:00.680Z,18.30
2018-12-15T02:58:28.965Z,18.17
2018-12-15T03:00:57.284Z,17.50
2018-12-15T03:03:25.551Z,16.73
2018-12-15T03:05:53.777Z,18.97
2018-12-15T03:08:22.010Z,20.83
2018-12-15T03:10:50.548Z,18.57
2018-12-15T03:13:18.750Z,18.83
2018-12-15T03:15:47.107Z,17.90
2018-12-15T03:18:15.387Z,18.07
2018-12-15T03:20:53.580Z,19.50
2018-12-15T03:23:21.872Z,19.83
2018-12-15T03:25:50.187Z,17.00
2018-12-15T03:28:18.384Z,18.83
2018-12-15T03:30:46.690Z,17.93
2018-12-15T03:33:15.009Z,17.37
2018-12-15T03:35:43.247Z,19.20
2018-12-15T03:38:11.472Z,18.50
2018-12-15T03:40:39.799Z,17.80
2018-12-15T03:43:08.114Z,19.27
2018-12-15T03:45:36.584Z,18.10
2018-12-15T03:48:05.019Z,19.63
2018-12-15T03:50:33.259Z,16.67
2018-12-15T03:53:01.893Z,20.10
2018-12-15T03:55:30.809Z,20.53
2018-12-15T03:57:59.106Z,19.80
2018-12-15T04:00:27.396Z,18.70
2018-12-15T04:02:55.609Z,18.93
2018-12-15T04:05:23.927Z,17.60
2018-12-15T04:07:52.131Z,16.70
2018-12-15T04:10:20.343Z,17.70
2018-12-15T04:12:48.577Z,14.77
2018-12-15T04:15:17.039Z,16.73
2018-12-15T04:17:45.241Z,17.67
2018-12-15T04:20:13.471Z,16.73
2018-12-15T04:22:41.779Z,17.23
2018-12-15T04:25:10.010Z,19.50
2018-12-15T04:27:38.223Z,20.10
2018-12-15T04:30:08.076Z,17.93
2018-12-15T04:32:36.295Z,18.37
2018-12-15T04:35:04.731Z,17.47
2018-12-15T04:37:33.047Z,19.77
2018-12-15T04:40:01.275Z,18.50
2018-12-15T04:42:29.646Z,17.97
2018-12-15T04:44:57.939Z,18.90
2018-12-15T04:47:26.263Z,16.90
2018-12-15T04:49:54.499Z,16.90
2018-12-15T04:52:22.780Z,16.70
2018-12-15T04:54:51.079Z,19.07
2018-12-15T04:57:19.271Z,15.67
2018-12-15T04:59:47.860Z,20.97
2018-12-15T05:02:16.096Z,16.50
2018-12-15T05:04:44.295Z,16.53
2018-12-15T05:07:12.544Z,16.53
2018-12-15T05:09:40.719Z,13.37
2018-12-15T05:12:09.098Z,12.80
2018-12-15T05:14:37.338Z,12.60
2018-12-15T05:23:49.584Z,12.03
2018-12-15T05:26:17.771Z,15.63
2018-12-15T05:28:46.037Z,18.10
2018-12-15T05:31:14.270Z,15.30
2018-12-15T05:33:42.635Z,17.13
2018-12-15T05:36:11.006Z,15.20
2018-12-15T05:38:39.291Z,13.63
2018-12-15T05:41:07.612Z,17.13
2018-12-15T05:43:35.841Z,14.40
2018-12-15T05:46:04.237Z,13.13
2018-12-15T05:48:32.560Z,13.77
2018-12-15T05:51:00.783Z,12.50
2018-12-15T05:53:29.054Z,13.30
2018-12-15T05:55:57.247Z,14.70
2018-12-15T05:58:25.475Z,14.87
2018-12-15T06:00:53.855Z,13.40
2018-12-15T06:03:22.374Z,11.87
2018-12-15T06:05:50.559Z,14.70
2018-12-15T06:08:18.767Z,13.50
2018-12-15T06:10:46.985Z,14.97
2018-12-15T06:13:15.302Z,14.53
2018-12-15T06:15:43.511Z,12.60
2018-12-15T06:18:11.747Z,12.30
2018-12-15T06:20:39.951Z,11.77
2018-12-15T06:23:08.155Z,10.63
2018-12-15T06:25:36.551Z,11.23
2018-12-15T06:28:04.831Z,12.47
2018-12-15T06:30:33.146Z,13.00
2018-12-15T06:33:01.379Z,11.90
2018-12-15T06:35:29.579Z,10.70
2018-12-15T06:37:57.819Z,12.40
2018-12-15T06:40:26.023Z,14.60
2018-12-15T06:42:55.452Z,13.20
2018-12-15T06:45:23.683Z,13.90
2018-12-15T06:47:51.970Z,13.37
2018-12-15T06:50:20.214Z,12.73
2018-12-15T06:52:48.437Z,12.23
2018-12-15T06:55:16.781Z,11.10
2018-12-15T06:57:45.072Z,11.43
2018-12-15T07:01:42.747Z,10.03
2018-12-15T07:04:11.006Z,10.40
2018-12-15T07:06:39.303Z,11.10
2018-12-15T07:09:07.869Z,10.13
2018-12-15T07:11:36.197Z,11.40
2018-12-15T07:14:04.403Z,9.70
2018-12-15T07:16:32.622Z,9.87
2018-12-15T07:19:00.839Z,11.00
2018-12-15T07:21:29.147Z,10.40
2018-12-15T07:23:57.396Z,10.27
2018-12-15T07:26:25.659Z,9.60
2018-12-15T07:28:53.982Z,9.53
2018-12-15T07:31:22.387Z,9.23
2018-12-15T07:33:50.732Z,10.33
2018-12-15T07:36:19.004Z,10.07
2018-12-15T07:38:47.223Z,12.17
2018-12-15T07:41:15.448Z,10.60
2018-12-15T07:43:43.763Z,12.03
2018-12-15T07:46:11.981Z,9.37
2018-12-15T07:48:40.187Z,10.00
2018-12-15T07:51:08.465Z,10.00
2018-12-15T07:53:36.763Z,9.27
2018-12-15T07:56:04.986Z,9.13
2018-12-15T07:58:33.348Z,10.30
2018-12-15T08:01:01.643Z,10.20
2018-12-15T08:03:29.937Z,10.77
2018-12-15T08:05:58.156Z,12.97
2018-12-15T08:08:26.466Z,10.07
2018-12-15T08:11:00.048Z,10.37
2018-12-15T08:13:29.183Z,11.57
2018-12-15T08:15:58.175Z,12.40
2018-12-15T08:18:26.420Z,12.50
2018-12-15T08:20:54.757Z,12.03
2018-12-15T08:23:22.937Z,10.80
2018-12-15T08:25:51.416Z,11.50
2018-12-15T08:28:19.636Z,11.10
2018-12-15T08:30:47.956Z,11.97
2018-12-15T08:33:16.247Z,12.57
2018-12-15T08:35:44.471Z,12.97
2018-12-15T08:38:12.871Z,12.13
2018-12-15T08:40:41.210Z,11.10
2018-12-15T08:43:09.427Z,11.60
2018-12-15T08:45:37.616Z,13.23
2018-12-15T08:48:05.846Z,13.83
2018-12-15T08:50:34.130Z,12.10
2018-12-15T08:53:02.344Z,11.43
2018-12-15T08:55:30.707Z,11.43
2018-12-15T08:57:58.910Z,10.87
2018-12-15T09:00:27.291Z,10.80
2018-12-15T09:02:56.122Z,10.00
2018-12-15T09:05:24.522Z,13.87
2018-12-15T09:07:52.725Z,11.00
2018-12-15T09:10:21.212Z,12.57
2018-12-15T09:12:49.432Z,12.00
2018-12-15T09:15:17.676Z,11.93
2018-12-15T09:17:46.102Z,12.20
2018-12-15T09:20:14.331Z,10.83
2018-12-15T09:22:42.710Z,11.53
2018-12-15T09:25:10.935Z,12.53
2018-12-15T09:27:39.249Z,11.30
2018-12-15T09:30:07.970Z,12.80
2018-12-15T09:32:36.194Z,12.77
2018-12-15T09:35:04.740Z,14.17
2018-12-15T09:39:02.524Z,12.90
2018-12-15T09:41:30.778Z,11.97
2018-12-15T09:43:59.173Z,12.77
2018-12-15T09:46:27.435Z,13.80
2018-12-15T09:48:55.751Z,14.57
2018-12-15T09:51:24.121Z,12.77
2018-12-15T09:53:52.323Z,13.73
2018-12-15T09:56:20.559Z,15.50
2018-12-15T09:58:48.912Z,13.90
2018-12-15T10:01:18.806Z,12.77
2018-12-15T10:03:47.264Z,12.90
2018-12-15T10:06:15.976Z,12.70
2018-12-15T10:08:44.436Z,13.20
2018-12-15T10:11:12.659Z,14.03
2018-12-15T10:13:40.889Z,13.47
2018-12-15T10:16:09.261Z,12.27
2018-12-15T10:18:37.529Z,11.73
2018-12-15T10:21:05.896Z,11.90
2018-12-15T10:23:34.163Z,11.73
2018-12-15T10:26:02.403Z,10.87
2018-12-15T10:28:31.042Z,12.00
2018-12-15T10:31:04.793Z,13.93
2018-12-15T10:33:33.184Z,14.13
2018-12-15T10:36:01.399Z,13.10
2018-12-15T10:38:29.655Z,13.10
2018-12-15T10:40:57.943Z,14.07
2018-12-15T10:43:26.170Z,12.27
2018-12-15T10:45:54.386Z,13.10
2018-12-15T10:48:22.620Z,14.50
2018-12-15T10:50:51.414Z,13.10
2018-12-15T10:53:19.640Z,12.57
2018-12-15T10:55:47.860Z,13.10
2018-12-15T10:58:16.059Z,13.17
2018-12-15T11:00:49.791Z,13.83
2018-12-15T11:03:18.031Z,13.43
2018-12-15T11:05:46.267Z,11.80
2018-12-15T11:08:14.507Z,13.20
2018-12-15T11:10:42.739Z,13.77
2018-12-15T11:13:11.235Z,12.70
2018-12-15T11:15:39.549Z,13.33
2018-12-15T11:18:07.956Z,14.80
2018-12-15T11:20:36.151Z,14.43
2018-12-15T11:23:04.388Z,14.67
2018-12-15T11:25:32.671Z,13.73
2018-12-15T11:28:01.039Z,12.40
2018-12-15T11:30:29.546Z,14.40
2018-12-15T11:32:57.818Z,12.63
2018-12-15T11:35:26.344Z,13.90
2018-12-15T11:37:54.588Z,13.40
2018-12-15T11:40:22.963Z,11.70
2018-12-15T11:42:51.223Z,12.67
2018-12-15T11:45:19.699Z,14.87
2018-12-15T11:47:47.910Z,14.93
2018-12-15T11:50:16.127Z,11.97
2018-12-15T11:52:44.374Z,12.13
2018-12-15T11:55:12.591Z,13.70
2018-12-15T11:57:40.870Z,12.67
2018-12-15T12:00:09.631Z,12.50
2018-12-15T12:02:37.877Z,12.87
2018-12-15T12:05:06.723Z,12.90
2018-12-15T12:07:35.231Z,13.80
2018-12-15T12:10:03.667Z,12.60
2018-12-15T12:12:31.995Z,12.63
2018-12-15T12:15:00.270Z,12.50
2018-12-15T12:17:28.490Z,12.40
2018-12-15T12:19:56.795Z,12.90
2018-12-15T12:22:25.223Z,14.00
2018-12-15T12:24:53.452Z,14.07
2018-12-15T12:27:21.772Z,13.63
2018-12-15T12:29:49.979Z,13.30
2018-12-15T12:32:18.252Z,13.00
2018-12-15T12:34:46.491Z,13.40
2018-12-15T12:37:14.819Z,13.60
2018-12-15T12:39:43.234Z,12.80
2018-12-15T12:42:11.703Z,11.60
2018-12-15T12:44:39.940Z,11.77
2018-12-15T12:47:08.183Z,12.17
2018-12-15T12:49:36.395Z,11.90
2018-12-15T12:52:04.861Z,12.07
2018-12-15T12:54:33.093Z,12.10
2018-12-15T12:57:01.371Z,10.70
2018-12-15T12:59:29.634Z,12.50
2018-12-15T13:01:58.088Z,12.20
2018-12-15T13:04:26.473Z,12.17
2018-12-15T13:06:54.715Z,12.33
2018-12-15T13:09:22.903Z,11.10
2018-12-15T13:11:51.182Z,11.27
2018-12-15T13:14:19.479Z,13.17
2018-12-15T13:16:47.718Z,11.70
2018-12-15T13:19:16.310Z,11.73
2018-12-15T13:21:44.594Z,10.73
2018-12-15T13:24:12.959Z,12.97
2018-12-15T13:26:41.371Z,12.97
2018-12-15T13:29:09.609Z,10.33
2018-12-15T13:31:38.190Z,10.30
2018-12-15T13:34:06.759Z,12.83
2018-12-15T13:36:35.001Z,11.87
2018-12-15T13:39:04.528Z,11.87
2018-12-15T13:41:33.172Z,10.90
2018-12-15T13:44:01.411Z,11.10
2018-12-15T13:46:30.080Z,12.90
2018-12-15T13:48:59.291Z,12.33
2018-12-15T13:51:27.652Z,11.73
2018-12-15T13:53:55.989Z,12.63
2018-12-15T13:56:24.239Z,12.97
2018-12-15T13:58:52.543Z,12.37
2018-12-15T14:01:20.783Z,12.53
2018-12-15T14:03:50.792Z,12.63
2018-12-15T14:06:18.989Z,12.90
2018-12-15T14:08:47.284Z,11.93
2018-12-15T14:11:15.919Z,12.60
2018-12-15T14:13:44.171Z,14.10
2018-12-15T14:16:12.447Z,13.33
2018-12-15T14:18:40.844Z,12.80
2018-12-15T14:21:09.197Z,13.83
2018-12-15T14:23:37.436Z,13.00
2018-12-15T14:26:05.653Z,12.23
2018-12-15T14:28:33.983Z,14.23
2018-12-15T14:31:02.413Z,14.30
2018-12-15T14:33:30.876Z,13.70
2018-12-15T14:35:59.367Z,14.00
2018-12-15T14:38:27.807Z,13.77
2018-12-15T14:40:56.104Z,13.57
2018-12-15T14:43:24.347Z,14.43
2018-12-15T14:45:52.870Z,16.27
2018-12-15T14:48:21.143Z,16.10
2018-12-15T14:50:49.515Z,15.20
2018-12-15T14:53:17.752Z,14.33
2018-12-15T14:55:46.638Z,15.93
2018-12-15T14:58:14.946Z,16.40
2018-12-15T15:00:43.196Z,14.97
2018-12-15T15:03:11.467Z,14.47
2018-12-15T15:05:39.703Z,16.27
2018-12-15T15:08:07.982Z,14.80
2018-12-15T15:10:36.261Z,16.10
2018-12-15T15:13:04.587Z,14.40
2018-12-15T15:15:32.795Z,15.10
2018-12-15T15:18:01.091Z,15.77
2018-12-15T15:20:29.856Z,14.40
2018-12-15T15:22:58.610Z,13.87
2018-12-15T15:25:27.047Z,14.20
2018-12-15T15:27:55.368Z,15.73
2018-12-15T15:30:23.841Z,13.77
2018-12-15T15:32:52.258Z,15.50
2018-12-15T15:35:20.471Z,15.63
2018-12-15T15:37:48.660Z,16.10
2018-12-15T15:40:17.175Z,16.30
2018-12-15T15:42:45.419Z,14.00
2018-12-15T15:45:13.806Z,14.23
2018-12-15T15:47:41.992Z,14.37
2018-12-15T15:50:10.306Z,15.27
2018-12-15T15:52:38.586Z,14.30
2018-12-15T15:55:07.484Z,14.87
2018-12-15T15:57:35.724Z,15.10
2018-12-15T16:00:05.111Z,15.27
2018-12-15T16:02:33.419Z,15.20
2018-12-15T16:05:02.434Z,14.97
2018-12-15T16:07:31.091Z,15.83
2018-12-15T16:09:59.351Z,15.20
2018-12-15T16:12:27.568Z,15.57
2018-12-15T16:14:55.891Z,15.53
2018-12-15T16:17:24.284Z,15.93
2018-12-15T16:19:52.555Z,17.23
2018-12-15T16:22:21.027Z,15.97
2018-12-15T16:24:49.465Z,15.20
2018-12-15T16:27:17.684Z,16.00
2018-12-15T16:29:45.926Z,16.17
2018-12-15T16:32:14.307Z,14.80
2018-12-15T16:34:42.523Z,15.43
2018-12-15T16:37:10.791Z,16.03
2018-12-15T16:39:39.239Z,17.50
2018-12-15T16:42:07.460Z,15.00
2018-12-15T16:44:35.682Z,14.43
2018-12-15T16:47:04.006Z,15.60
2018-12-15T16:49:32.239Z,16.80
2018-12-15T16:58:44.591Z,17.00
2018-12-15T17:01:12.807Z,15.87
2018-12-15T17:03:41.079Z,17.13
2018-12-15T17:06:09.384Z,18.37
2018-12-15T17:08:37.875Z,17.30
2018-12-15T17:11:06.111Z,15.70
2018-12-15T17:13:34.335Z,15.80
2018-12-15T17:16:02.675Z,17.30
2018-12-15T17:18:30.942Z,18.47
2018-12-15T17:20:59.424Z,14.80
2018-12-15T17:23:27.596Z,17.83
2018-12-15T17:25:55.803Z,15.30
2018-12-15T17:28:24.030Z,17.73
2018-12-15T17:30:52.459Z,18.17
2018-12-15T17:33:20.679Z,18.77
2018-12-15T17:35:48.992Z,16.33
2018-12-15T17:38:17.231Z,14.80
2018-12-15T17:40:45.492Z,17.37
2018-12-15T17:43:13.783Z,14.67
2018-12-15T17:45:42.906Z,15.30
2018-12-15T17:48:11.124Z,13.27
2018-12-15T17:50:39.519Z,12.53
2018-12-15T17:53:07.767Z,13.80
2018-12-15T17:55:35.968Z,13.10
2018-12-15T17:58:04.272Z,12.43
2018-12-15T18:00:32.635Z,12.50
2018-12-15T18:03:00.849Z,13.50
2018-12-15T18:05:29.046Z,13.30
2018-12-15T18:07:57.259Z,15.27
2018-12-15T18:10:25.473Z,13.27
2018-12-15T18:12:53.703Z,13.20
2018-12-15T18:15:21.926Z,12.67
2018-12-15T18:17:51.122Z,11.97
2018-12-15T18:20:19.323Z,14.10
2018-12-15T18:22:47.574Z,13.27
2018-12-15T18:25:15.794Z,13.03
2018-12-15T18:27:44.014Z,14.43
2018-12-15T18:30:12.399Z,11.53
2018-12-15T18:32:40.605Z,11.17
2018-12-15T18:35:09.016Z,11.40
2018-12-15T18:37:37.352Z,12.50
2018-12-15T18:40:06.719Z,11.47
2018-12-15T18:42:34.926Z,12.60
2018-12-15T18:45:03.237Z,12.93
2018-12-15T18:47:31.507Z,12.67
2018-12-15T18:49:59.719Z,11.60
2018-12-15T18:52:28.079Z,11.50
2018-12-15T18:54:56.595Z,11.50
2018-12-15T18:57:24.781Z,12.07
2018-12-15T18:59:53.995Z,12.20
2018-12-15T19:02:22.379Z,12.30
2018-12-15T19:04:50.573Z,13.03
2018-12-15T19:07:18.892Z,13.17
2018-12-15T19:09:47.366Z,12.40
2018-12-15T19:12:15.618Z,13.70
2018-12-15T19:14:43.852Z,11.33
2018-12-15T19:17:12.108Z,11.27
2018-12-15T19:19:40.418Z,11.30
2018-12-15T19:22:08.796Z,10.90
2018-12-15T19:24:37.141Z,12.20
2018-12-15T19:27:05.348Z,14.07
2018-12-15T19:29:33.557Z,12.77
2018-12-15T19:32:01.770Z,12.43
2018-12-15T19:34:30.015Z,11.70
2018-12-15T19:36:58.251Z,12.50
2018-12-15T19:39:26.664Z,11.77
2018-12-15T19:41:54.894Z,12.87
2018-12-15T19:44:23.595Z,11.73
2018-12-15T19:46:51.796Z,13.23
2018-12-15T19:49:20.084Z,12.33
2018-12-15T19:51:48.419Z,10.97
2018-12-15T19:54:16.653Z,12.27
2018-12-15T19:56:44.948Z,10.77
2018-12-15T19:59:15.230Z,13.22
2018-12-15T20:01:44.014Z,12.10
2018-12-15T20:04:12.260Z,13.30
2018-12-15T20:06:40.830Z,12.40
2018-12-15T20:09:09.854Z,12.37
2018-12-15T20:11:38.327Z,12.53
2018-12-15T20:14:06.571Z,12.20
2018-12-15T20:16:34.942Z,15.33
2018-12-15T20:19:03.215Z,13.50
2018-12-15T20:21:35.981Z,14.50
2018-12-15T20:24:01.620Z,13.03
2018-12-15T20:26:29.859Z,13.53
2018-12-15T20:28:58.088Z,13.53
2018-12-15T20:31:26.319Z,15.47
2018-12-15T20:33:54.666Z,14.50
2018-12-15T20:36:22.929Z,13.63
2018-12-15T20:38:51.135Z,14.20
2018-12-15T20:41:19.373Z,14.50
2018-12-15T20:43:47.693Z,14.87
2018-12-15T20:46:15.881Z,15.07
2018-12-15T20:48:44.122Z,15.25
2018-12-15T20:51:12.747Z,14.10
2018-12-15T20:53:41.004Z,16.05
2018-12-15T20:56:09.292Z,15.03
2018-12-15T20:58:37.486Z,15.70
2018-12-15T21:01:05.729Z,15.17
2018-12-15T21:03:33.911Z,16.77
2018-12-15T21:06:02.135Z,16.10
2018-12-15T21:08:30.339Z,15.23
2018-12-15T21:10:58.550Z,15.60
2018-12-15T21:13:27.114Z,15.45
2018-12-15T21:15:58.366Z,17.42
2018-12-15T21:18:26.810Z,17.52
2018-12-15T21:20:55.028Z,18.98
2018-12-15T21:23:23.258Z,17.60
2018-12-15T21:25:51.536Z,16.80
2018-12-15T21:28:19.836Z,17.15
2018-12-15T21:30:48.064Z,16.73
2018-12-15T21:33:16.351Z,18.85
2018-12-15T21:35:44.737Z,18.63
2018-12-15T21:38:12.972Z,19.67
2018-12-15T21:40:41.379Z,18.97
2018-12-15T21:43:09.588Z,18.80
2018-12-15T21:45:37.922Z,19.37
2018-12-15T21:48:06.366Z,17.70
2018-12-15T21:50:34.586Z,20.73
2018-12-15T21:53:02.951Z,18.52
2018-12-15T21:55:31.233Z,19.48
2018-12-15T21:57:59.780Z,19.77
2018-12-15T22:00:28.066Z,18.52
2018-12-15T22:02:56.366Z,18.55
2018-12-15T22:05:24.583Z,18.92
2018-12-15T22:07:53.083Z,19.00
2018-12-15T22:10:21.327Z,17.17
2018-12-15T22:12:49.627Z,20.90
2018-12-15T22:15:17.859Z,18.53
2018-12-15T22:17:46.074Z,19.52
2018-12-15T22:20:15.108Z,20.10
2018-12-15T22:22:43.441Z,17.82
2018-12-15T22:25:11.643Z,19.55
2018-12-15T22:27:39.922Z,16.95
2018-12-15T22:30:09.303Z,19.05
2018-12-15T22:32:37.541Z,16.97
2018-12-15T22:35:06.111Z,17.05
2018-12-15T22:37:34.366Z,17.48
2018-12-15T22:40:02.672Z,17.02
2018-12-15T22:42:31.181Z,17.37
2018-12-15T22:44:59.425Z,17.23
2018-12-15T22:47:27.650Z,16.50
2018-12-15T22:49:55.895Z,18.20
2018-12-15T22:52:24.103Z,16.75
2018-12-15T22:54:52.343Z,17.52
2018-12-15T22:57:20.559Z,16.97
2018-12-15T22:59:48.791Z,17.30
2018-12-15T23:02:16.999Z,18.48
2018-12-15T23:04:45.402Z,17.65
2018-12-15T23:07:13.655Z,18.87
2018-12-15T23:09:42.083Z,17.80
2018-12-15T23:12:10.299Z,16.37
2018-12-15T23:14:38.623Z,16.35
2018-12-15T23:17:06.859Z,16.23
2018-12-15T23:19:35.093Z,17.25
2018-12-15T23:22:03.311Z,16.35
2018-12-15T23:24:31.538Z,16.35
2018-12-15T23:27:00.122Z,15.20
2018-12-15T23:29:28.304Z,15.10
2018-12-15T23:31:56.549Z,16.90
2018-12-15T23:34:24.772Z,14.28
2018-12-15T23:36:53.088Z,14.60
2018-12-15T23:39:21.745Z,16.85
2018-12-15T23:41:49.959Z,16.52
2018-12-15T23:44:18.445Z,16.50
2018-12-15T23:46:46.651Z,15.83
2018-12-15T23:49:15.255Z,17.82
2018-12-15T23:51:43.529Z,16.82
2018-12-15T23:54:11.727Z,17.05
2018-12-15T23:56:39.968Z,16.57
2018-12-15T23:59:08.259Z,15.80
